sensor_id;sensor_type;location;lat;lon;timestamp;P1;durP1;ratioP1;P2;durP2;ratioP2
14007;SDS011;61651;45.508;12.232;2024-03-23T00:56:36;23.17;;;20.83;;
14007;SDS011;61651;45.508;12.232;2024-03-23T00:59:37;24.20;;;21.92;;
14007;SDS011;61651;45.508;12.232;2024-03-23T01:02:39;23.05;;;20.65;;
14007;SDS011;61651;45.508;12.232;2024-03-23T01:05:40;23.27;;;20.88;;
14007;SDS011;61651;45.508;12.232;2024-03-23T01:08:42;25.35;;;22.83;;
14007;SDS011;61651;45.508;12.232;2024-03-23T01:11:44;25.15;;;22.55;;
14007;SDS011;61651;45.508;12.232;2024-03-23T01:14:46;25.85;;;23.15;;
14007;SDS011;61651;45.508;12.232;2024-03-23T01:17:48;24.80;;;22.27;;
14007;SDS011;61651;45.508;12.232;2024-03-23T01:20:49;23.55;;;21.10;;
14007;SDS011;61651;45.508;12.232;2024-03-23T01:23:51;22.55;;;20.38;;
14007;SDS011;61651;45.508;12.232;2024-03-23T01:26:54;25.15;;;22.63;;
14007;SDS011;61651;45.508;12.232;2024-03-23T01:29:55;26.23;;;23.48;;
14007;SDS011;61651;45.508;12.232;2024-03-23T01:32:57;23.02;;;20.73;;
14007;SDS011;61651;45.508;12.232;2024-03-23T01:35:59;23.05;;;20.63;;
14007;SDS011;61651;45.508;12.232;2024-03-23T01:39:01;27.15;;;23.17;;
14007;SDS011;61651;45.508;12.232;2024-03-23T01:42:05;26.67;;;23.90;;
14007;SDS011;61651;45.508;12.232;2024-03-23T01:45:07;25.15;;;22.73;;
14007;SDS011;61651;45.508;12.232;2024-03-23T01:48:09;24.27;;;21.67;;
14007;SDS011;61651;45.508;12.232;2024-03-23T01:51:12;25.40;;;22.70;;
14007;SDS011;61651;45.508;12.232;2024-03-23T01:54:15;26.50;;;23.55;;
14007;SDS011;61651;45.508;12.232;2024-03-23T01:57:17;25.42;;;22.83;;
14007;SDS011;61651;45.508;12.232;2024-03-23T02:00:21;24.35;;;21.90;;
14007;SDS011;61651;45.508;12.232;2024-03-23T02:03:23;26.70;;;21.75;;
14007;SDS011;61651;45.508;12.232;2024-03-23T02:06:24;25.90;;;23.17;;
14007;SDS011;61651;45.508;12.232;2024-03-23T02:09:26;24.60;;;22.08;;
14007;SDS011;61651;45.508;12.232;2024-03-23T02:12:29;24.55;;;22.05;;
14007;SDS011;61651;45.508;12.232;2024-03-23T02:15:31;26.02;;;23.35;;
14007;SDS011;61651;45.508;12.232;2024-03-23T02:18:32;26.05;;;22.98;;
14007;SDS011;61651;45.508;12.232;2024-03-23T02:21:34;26.95;;;24.05;;
14007;SDS011;61651;45.508;12.232;2024-03-23T02:24:37;25.98;;;23.33;;
14007;SDS011;61651;45.508;12.232;2024-03-23T02:27:38;24.15;;;21.70;;
14007;SDS011;61651;45.508;12.232;2024-03-23T02:30:40;25.65;;;23.05;;
14007;SDS011;61651;45.508;12.232;2024-03-23T02:33:42;24.40;;;21.90;;
14007;SDS011;61651;45.508;12.232;2024-03-23T02:36:43;25.52;;;22.98;;
14007;SDS011;61651;45.508;12.232;2024-03-23T02:39:46;24.70;;;22.15;;
14007;SDS011;61651;45.508;12.232;2024-03-23T02:42:47;24.92;;;22.50;;
14007;SDS011;61651;45.508;12.232;2024-03-23T02:45:49;25.88;;;23.13;;
14007;SDS011;61651;45.508;12.232;2024-03-23T02:48:50;24.85;;;22.35;;
14007;SDS011;61651;45.508;12.232;2024-03-23T02:51:51;25.50;;;22.83;;
14007;SDS011;61651;45.508;12.232;2024-03-23T02:54:54;25.15;;;22.65;;
14007;SDS011;61651;45.508;12.232;2024-03-23T02:57:56;27.08;;;24.23;;
14007;SDS011;61651;45.508;12.232;2024-03-23T03:01:01;27.50;;;24.75;;
14007;SDS011;61651;45.508;12.232;2024-03-23T03:04:03;27.15;;;24.17;;
14007;SDS011;61651;45.508;12.232;2024-03-23T03:07:05;28.42;;;24.42;;
14007;SDS011;61651;45.508;12.232;2024-03-23T03:10:09;27.10;;;24.55;;
14007;SDS011;61651;45.508;12.232;2024-03-23T03:13:11;28.45;;;25.48;;
14007;SDS011;61651;45.508;12.232;2024-03-23T03:16:13;27.83;;;24.67;;
14007;SDS011;61651;45.508;12.232;2024-03-23T03:19:14;28.02;;;25.27;;
14007;SDS011;61651;45.508;12.232;2024-03-23T03:22:16;28.20;;;24.73;;
14007;SDS011;61651;45.508;12.232;2024-03-23T03:25:20;27.75;;;24.98;;
14007;SDS011;61651;45.508;12.232;2024-03-23T03:28:20;28.15;;;25.25;;
14007;SDS011;61651;45.508;12.232;2024-03-23T03:31:22;28.90;;;26.00;;
14007;SDS011;61651;45.508;12.232;2024-03-23T03:34:23;31.98;;;28.05;;
14007;SDS011;61651;45.508;12.232;2024-03-23T03:37:25;30.25;;;27.20;;
14007;SDS011;61651;45.508;12.232;2024-03-23T03:40:28;29.15;;;26.02;;
14007;SDS011;61651;45.508;12.232;2024-03-23T03:43:29;29.98;;;26.88;;
14007;SDS011;61651;45.508;12.232;2024-03-23T03:46:31;29.52;;;26.58;;
14007;SDS011;61651;45.508;12.232;2024-03-23T03:49:33;29.73;;;26.88;;
14007;SDS011;61651;45.508;12.232;2024-03-23T03:52:34;29.63;;;26.52;;
14007;SDS011;61651;45.508;12.232;2024-03-23T03:55:37;29.08;;;26.08;;
14007;SDS011;61651;45.508;12.232;2024-03-23T03:58:38;27.52;;;24.63;;
14007;SDS011;61651;45.508;12.232;2024-03-23T04:01:40;27.77;;;24.98;;
14007;SDS011;61651;45.508;12.232;2024-03-23T04:04:41;28.73;;;25.70;;
14007;SDS011;61651;45.508;12.232;2024-03-23T04:07:43;27.40;;;24.55;;
14007;SDS011;61651;45.508;12.232;2024-03-23T04:10:46;28.55;;;25.58;;
14007;SDS011;61651;45.508;12.232;2024-03-23T04:13:47;28.40;;;25.55;;
14007;SDS011;61651;45.508;12.232;2024-03-23T04:16:49;26.52;;;23.92;;
14007;SDS011;61651;45.508;12.232;2024-03-23T04:19:50;27.08;;;24.35;;
14007;SDS011;61651;45.508;12.232;2024-03-23T04:22:54;26.30;;;23.58;;
14007;SDS011;61651;45.508;12.232;2024-03-23T04:25:57;25.60;;;22.95;;
14007;SDS011;61651;45.508;12.232;2024-03-23T04:29:05;26.52;;;23.83;;
14007;SDS011;61651;45.508;12.232;2024-03-23T04:32:07;25.00;;;22.50;;
14007;SDS011;61651;45.508;12.232;2024-03-23T04:35:08;26.42;;;22.98;;
14007;SDS011;61651;45.508;12.232;2024-03-23T04:38:10;24.33;;;21.95;;
14007;SDS011;61651;45.508;12.232;2024-03-23T04:41:14;24.70;;;22.10;;
14007;SDS011;61651;45.508;12.232;2024-03-23T04:44:16;24.45;;;21.85;;
14007;SDS011;61651;45.508;12.232;2024-03-23T04:47:17;30.65;;;22.83;;
14007;SDS011;61651;45.508;12.232;2024-03-23T04:50:19;25.27;;;22.65;;
14007;SDS011;61651;45.508;12.232;2024-03-23T04:53:21;24.90;;;22.50;;
14007;SDS011;61651;45.508;12.232;2024-03-23T04:56:29;23.45;;;21.05;;
14007;SDS011;61651;45.508;12.232;2024-03-23T04:59:31;23.40;;;21.00;;
14007;SDS011;61651;45.508;12.232;2024-03-23T05:02:33;23.48;;;21.08;;
14007;SDS011;61651;45.508;12.232;2024-03-23T05:05:35;24.83;;;22.35;;
14007;SDS011;61651;45.508;12.232;2024-03-23T05:08:36;21.95;;;19.88;;
14007;SDS011;61651;45.508;12.232;2024-03-23T05:11:39;22.10;;;19.95;;
14007;SDS011;61651;45.508;12.232;2024-03-23T05:14:40;23.60;;;21.17;;
14007;SDS011;61651;45.508;12.232;2024-03-23T05:17:42;21.73;;;19.55;;
14007;SDS011;61651;45.508;12.232;2024-03-23T05:20:42;23.10;;;20.98;;
14007;SDS011;61651;45.508;12.232;2024-03-23T05:23:44;22.75;;;20.45;;
14007;SDS011;61651;45.508;12.232;2024-03-23T05:26:49;23.00;;;20.80;;
14007;SDS011;61651;45.508;12.232;2024-03-23T05:29:49;25.15;;;21.77;;
14007;SDS011;61651;45.508;12.232;2024-03-23T05:32:51;23.50;;;21.30;;
14007;SDS011;61651;45.508;12.232;2024-03-23T05:35:56;23.55;;;21.25;;
14007;SDS011;61651;45.508;12.232;2024-03-23T05:38:58;23.73;;;21.38;;
14007;SDS011;61651;45.508;12.232;2024-03-23T05:42:00;23.30;;;20.98;;
14007;SDS011;61651;45.508;12.232;2024-03-23T05:45:02;24.55;;;22.20;;
14007;SDS011;61651;45.508;12.232;2024-03-23T05:48:06;25.10;;;22.58;;
14007;SDS011;61651;45.508;12.232;2024-03-23T05:51:08;25.15;;;22.48;;
14007;SDS011;61651;45.508;12.232;2024-03-23T05:54:09;23.45;;;21.05;;
14007;SDS011;61651;45.508;12.232;2024-03-23T05:57:12;24.92;;;22.10;;
14007;SDS011;61651;45.508;12.232;2024-03-23T06:00:14;24.95;;;22.70;;
14007;SDS011;61651;45.508;12.232;2024-03-23T06:03:17;25.45;;;22.88;;
14007;SDS011;61651;45.508;12.232;2024-03-23T06:06:18;25.60;;;23.15;;
14007;SDS011;61651;45.508;12.232;2024-03-23T06:09:20;26.35;;;23.75;;
14007;SDS011;61651;45.508;12.232;2024-03-23T06:12:22;26.77;;;24.08;;
14007;SDS011;61651;45.508;12.232;2024-03-23T06:15:24;24.70;;;22.30;;
14007;SDS011;61651;45.508;12.232;2024-03-23T06:18:25;26.73;;;24.10;;
14007;SDS011;61651;45.508;12.232;2024-03-23T06:21:27;30.45;;;27.27;;
14007;SDS011;61651;45.508;12.232;2024-03-23T06:24:28;30.25;;;27.20;;
14007;SDS011;61651;45.508;12.232;2024-03-23T06:27:32;30.20;;;27.20;;
14007;SDS011;61651;45.508;12.232;2024-03-23T06:30:34;30.15;;;26.58;;
14007;SDS011;61651;45.508;12.232;2024-03-23T06:33:34;29.75;;;26.73;;
14007;SDS011;61651;45.508;12.232;2024-03-23T06:36:36;28.92;;;26.20;;
14007;SDS011;61651;45.508;12.232;2024-03-23T06:39:38;29.98;;;26.80;;
14007;SDS011;61651;45.508;12.232;2024-03-23T06:42:42;29.90;;;26.83;;
14007;SDS011;61651;45.508;12.232;2024-03-23T06:45:42;28.75;;;25.77;;
14007;SDS011;61651;45.508;12.232;2024-03-23T06:48:44;28.63;;;25.70;;
14007;SDS011;61651;45.508;12.232;2024-03-23T06:51:46;29.10;;;26.10;;
14007;SDS011;61651;45.508;12.232;2024-03-23T06:54:47;29.48;;;26.48;;
14007;SDS011;61651;45.508;12.232;2024-03-23T06:57:51;29.67;;;26.77;;
14007;SDS011;61651;45.508;12.232;2024-03-23T07:00:52;29.80;;;27.00;;
14007;SDS011;61651;45.508;12.232;2024-03-23T07:03:54;28.75;;;25.85;;
14007;SDS011;61651;45.508;12.232;2024-03-23T07:06:56;29.95;;;27.05;;
14007;SDS011;61651;45.508;12.232;2024-03-23T07:09:57;30.55;;;27.38;;
14007;SDS011;61651;45.508;12.232;2024-03-23T07:13:01;31.00;;;27.88;;
14007;SDS011;61651;45.508;12.232;2024-03-23T07:16:02;29.38;;;26.60;;
14007;SDS011;61651;45.508;12.232;2024-03-23T07:19:04;31.73;;;28.70;;
14007;SDS011;61651;45.508;12.232;2024-03-23T07:22:04;30.67;;;27.77;;
14007;SDS011;61651;45.508;12.232;2024-03-23T07:25:07;32.67;;;29.40;;
14007;SDS011;61651;45.508;12.232;2024-03-23T07:28:09;30.50;;;27.60;;
14007;SDS011;61651;45.508;12.232;2024-03-23T07:31:11;31.88;;;28.73;;
14007;SDS011;61651;45.508;12.232;2024-03-23T07:34:14;30.08;;;26.90;;
14007;SDS011;61651;45.508;12.232;2024-03-23T07:37:15;32.35;;;29.38;;
14007;SDS011;61651;45.508;12.232;2024-03-23T07:40:17;32.55;;;29.15;;
14007;SDS011;61651;45.508;12.232;2024-03-23T07:43:19;32.70;;;29.40;;
14007;SDS011;61651;45.508;12.232;2024-03-23T07:46:21;30.92;;;27.92;;
14007;SDS011;61651;45.508;12.232;2024-03-23T07:49:22;31.52;;;28.38;;
14007;SDS011;61651;45.508;12.232;2024-03-23T07:52:24;31.67;;;28.58;;
14007;SDS011;61651;45.508;12.232;2024-03-23T07:55:28;32.60;;;29.23;;
14007;SDS011;61651;45.508;12.232;2024-03-23T07:58:32;30.50;;;27.55;;
14007;SDS011;61651;45.508;12.232;2024-03-23T08:01:33;30.95;;;27.90;;
14007;SDS011;61651;45.508;12.232;2024-03-23T08:04:35;29.75;;;26.80;;
14007;SDS011;61651;45.508;12.232;2024-03-23T08:07:36;34.83;;;28.27;;
14007;SDS011;61651;45.508;12.232;2024-03-23T08:10:46;29.83;;;26.95;;
14007;SDS011;61651;45.508;12.232;2024-03-23T08:13:49;29.20;;;26.42;;
14007;SDS011;61651;45.508;12.232;2024-03-23T08:16:51;30.70;;;27.48;;
14007;SDS011;61651;45.508;12.232;2024-03-23T08:19:55;29.13;;;26.30;;
14007;SDS011;61651;45.508;12.232;2024-03-23T08:22:56;28.08;;;25.38;;
14007;SDS011;61651;45.508;12.232;2024-03-23T08:25:58;29.17;;;26.00;;
14007;SDS011;61651;45.508;12.232;2024-03-23T08:29:02;29.48;;;26.50;;
14007;SDS011;61651;45.508;12.232;2024-03-23T08:32:04;28.95;;;25.70;;
14007;SDS011;61651;45.508;12.232;2024-03-23T08:35:06;29.95;;;27.08;;
14007;SDS011;61651;45.508;12.232;2024-03-23T08:38:09;28.52;;;25.83;;
14007;SDS011;61651;45.508;12.232;2024-03-23T08:41:10;25.77;;;23.25;;
14007;SDS011;61651;45.508;12.232;2024-03-23T08:44:14;26.80;;;24.17;;
14007;SDS011;61651;45.508;12.232;2024-03-23T08:47:15;27.30;;;24.85;;
14007;SDS011;61651;45.508;12.232;2024-03-23T08:50:17;28.42;;;25.50;;
14007;SDS011;61651;45.508;12.232;2024-03-23T08:53:18;28.13;;;25.52;;
14007;SDS011;61651;45.508;12.232;2024-03-23T08:56:20;28.27;;;25.60;;
14007;SDS011;61651;45.508;12.232;2024-03-23T08:59:23;23.92;;;21.73;;
14007;SDS011;61651;45.508;12.232;2024-03-23T09:02:25;27.23;;;24.38;;
14007;SDS011;61651;45.508;12.232;2024-03-23T09:05:26;25.70;;;23.05;;
14007;SDS011;61651;45.508;12.232;2024-03-23T09:08:28;25.17;;;22.58;;
14007;SDS011;61651;45.508;12.232;2024-03-23T09:11:31;22.40;;;20.17;;
14007;SDS011;61651;45.508;12.232;2024-03-23T09:14:33;22.70;;;19.45;;
14007;SDS011;61651;45.508;12.232;2024-03-23T09:17:35;23.20;;;20.92;;
14007;SDS011;61651;45.508;12.232;2024-03-23T09:20:37;19.13;;;17.30;;
14007;SDS011;61651;45.508;12.232;2024-03-23T09:23:38;21.23;;;19.00;;
14007;SDS011;61651;45.508;12.232;2024-03-23T09:26:40;22.42;;;18.40;;
14007;SDS011;61651;45.508;12.232;2024-03-23T09:29:42;19.15;;;17.13;;
14007;SDS011;61651;45.508;12.232;2024-03-23T09:32:45;19.95;;;17.92;;
14007;SDS011;61651;45.508;12.232;2024-03-23T09:35:46;20.90;;;17.42;;
14007;SDS011;61651;45.508;12.232;2024-03-23T09:38:48;17.27;;;15.57;;
14007;SDS011;61651;45.508;12.232;2024-03-23T09:41:49;17.73;;;15.85;;
14007;SDS011;61651;45.508;12.232;2024-03-23T09:44:52;16.35;;;14.35;;
14007;SDS011;61651;45.508;12.232;2024-03-23T09:47:54;16.05;;;14.45;;
14007;SDS011;61651;45.508;12.232;2024-03-23T09:50:56;15.93;;;14.38;;
14007;SDS011;61651;45.508;12.232;2024-03-23T09:53:57;15.70;;;14.20;;
14007;SDS011;61651;45.508;12.232;2024-03-23T09:57:00;14.38;;;12.88;;
14007;SDS011;61651;45.508;12.232;2024-03-23T10:00:02;13.77;;;12.13;;
14007;SDS011;61651;45.508;12.232;2024-03-23T10:03:05;14.43;;;12.98;;
14007;SDS011;61651;45.508;12.232;2024-03-23T10:06:06;14.93;;;13.52;;
14007;SDS011;61651;45.508;12.232;2024-03-23T10:09:14;17.92;;;16.13;;
14007;SDS011;61651;45.508;12.232;2024-03-23T10:12:17;15.10;;;13.63;;
14007;SDS011;61651;45.508;12.232;2024-03-23T10:15:22;17.13;;;15.35;;
14007;SDS011;61651;45.508;12.232;2024-03-23T10:18:26;16.00;;;14.40;;
14007;SDS011;61651;45.508;12.232;2024-03-23T10:21:28;15.23;;;13.70;;
14007;SDS011;61651;45.508;12.232;2024-03-23T10:24:30;16.52;;;14.85;;
14007;SDS011;61651;45.508;12.232;2024-03-23T10:27:31;15.38;;;13.88;;
14007;SDS011;61651;45.508;12.232;2024-03-23T10:30:34;17.60;;;15.77;;
14007;SDS011;61651;45.508;12.232;2024-03-23T10:33:36;17.15;;;15.38;;
14007;SDS011;61651;45.508;12.232;2024-03-23T10:36:44;18.35;;;16.65;;
14007;SDS011;61651;45.508;12.232;2024-03-23T10:39:46;18.53;;;16.83;;
14007;SDS011;61651;45.508;12.232;2024-03-23T10:42:47;17.33;;;15.75;;
14007;SDS011;61651;45.508;12.232;2024-03-23T10:45:50;17.67;;;16.08;;
14007;SDS011;61651;45.508;12.232;2024-03-23T10:48:51;17.55;;;15.93;;
14007;SDS011;61651;45.508;12.232;2024-03-23T10:51:53;18.02;;;16.45;;
14007;SDS011;61651;45.508;12.232;2024-03-23T10:54:54;16.92;;;15.20;;
14007;SDS011;61651;45.508;12.232;2024-03-23T10:57:57;17.50;;;15.80;;
14007;SDS011;61651;45.508;12.232;2024-03-23T11:01:01;18.15;;;16.33;;
14007;SDS011;61651;45.508;12.232;2024-03-23T11:04:04;18.80;;;17.00;;
14007;SDS011;61651;45.508;12.232;2024-03-23T11:07:14;17.13;;;15.43;;
14007;SDS011;61651;45.508;12.232;2024-03-23T11:10:30;18.30;;;16.60;;
14007;SDS011;61651;45.508;12.232;2024-03-23T11:13:32;17.48;;;15.70;;
14007;SDS011;61651;45.508;12.232;2024-03-23T11:16:35;20.00;;;18.00;;
14007;SDS011;61651;45.508;12.232;2024-03-23T11:19:39;19.73;;;17.85;;
14007;SDS011;61651;45.508;12.232;2024-03-23T11:22:41;20.23;;;18.25;;
14007;SDS011;61651;45.508;12.232;2024-03-23T11:25:44;19.80;;;17.92;;
14007;SDS011;61651;45.508;12.232;2024-03-23T11:28:45;23.73;;;21.25;;
14007;SDS011;61651;45.508;12.232;2024-03-23T11:31:48;26.23;;;23.80;;
14007;SDS011;61651;45.508;12.232;2024-03-23T11:34:50;27.40;;;24.63;;
14007;SDS011;61651;45.508;12.232;2024-03-23T11:38:01;26.33;;;23.70;;
14007;SDS011;61651;45.508;12.232;2024-03-23T11:41:04;28.17;;;25.38;;
14007;SDS011;61651;45.508;12.232;2024-03-23T11:44:14;27.23;;;24.75;;
14007;SDS011;61651;45.508;12.232;2024-03-23T11:47:17;25.40;;;23.00;;
14007;SDS011;61651;45.508;12.232;2024-03-23T11:50:19;21.85;;;19.70;;
14007;SDS011;61651;45.508;12.232;2024-03-23T11:53:21;25.27;;;22.88;;
14007;SDS011;61651;45.508;12.232;2024-03-23T11:56:24;21.50;;;19.30;;
14007;SDS011;61651;45.508;12.232;2024-03-23T11:59:35;22.70;;;20.60;;
14007;SDS011;61651;45.508;12.232;2024-03-23T12:02:39;21.00;;;18.95;;
14007;SDS011;61651;45.508;12.232;2024-03-23T12:05:40;21.08;;;18.98;;
14007;SDS011;61651;45.508;12.232;2024-03-23T12:08:42;22.27;;;20.08;;
14007;SDS011;61651;45.508;12.232;2024-03-23T12:11:48;19.95;;;17.90;;
14007;SDS011;61651;45.508;12.232;2024-03-23T12:15:00;20.45;;;18.45;;
14007;SDS011;61651;45.508;12.232;2024-03-23T12:18:08;18.92;;;16.92;;
14007;SDS011;61651;45.508;12.232;2024-03-23T12:21:11;20.08;;;17.90;;
14007;SDS011;61651;45.508;12.232;2024-03-23T12:24:12;18.92;;;17.13;;
14007;SDS011;61651;45.508;12.232;2024-03-23T12:27:14;18.70;;;17.00;;
14007;SDS011;61651;45.508;12.232;2024-03-23T12:30:16;19.98;;;17.90;;
14007;SDS011;61651;45.508;12.232;2024-03-23T12:33:19;19.05;;;17.25;;
14007;SDS011;61651;45.508;12.232;2024-03-23T12:36:21;19.17;;;17.15;;
14007;SDS011;61651;45.508;12.232;2024-03-23T12:39:22;19.55;;;17.55;;
14007;SDS011;61651;45.508;12.232;2024-03-23T12:42:24;21.23;;;19.35;;
14007;SDS011;61651;45.508;12.232;2024-03-23T12:45:26;19.73;;;17.77;;
14007;SDS011;61651;45.508;12.232;2024-03-23T12:48:29;19.92;;;18.02;;
14007;SDS011;61651;45.508;12.232;2024-03-23T12:51:31;21.43;;;19.43;;
14007;SDS011;61651;45.508;12.232;2024-03-23T12:54:33;22.17;;;20.13;;
14007;SDS011;61651;45.508;12.232;2024-03-23T12:57:34;20.77;;;18.67;;
14007;SDS011;61651;45.508;12.232;2024-03-23T13:00:36;20.80;;;18.85;;
14007;SDS011;61651;45.508;12.232;2024-03-23T13:03:38;22.42;;;20.42;;
14007;SDS011;61651;45.508;12.232;2024-03-23T13:06:41;22.60;;;20.60;;
14007;SDS011;61651;45.508;12.232;2024-03-23T13:09:42;21.70;;;19.80;;
14007;SDS011;61651;45.508;12.232;2024-03-23T13:12:44;21.58;;;19.42;;
14007;SDS011;61651;45.508;12.232;2024-03-23T13:15:49;24.60;;;22.40;;
14007;SDS011;61651;45.508;12.232;2024-03-23T13:18:52;24.15;;;21.83;;
14007;SDS011;61651;45.508;12.232;2024-03-23T13:21:53;22.60;;;20.40;;
14007;SDS011;61651;45.508;12.232;2024-03-23T13:24:55;22.92;;;20.80;;
14007;SDS011;61651;45.508;12.232;2024-03-23T13:27:57;23.88;;;21.65;;
14007;SDS011;61651;45.508;12.232;2024-03-23T13:30:58;21.98;;;19.88;;
14007;SDS011;61651;45.508;12.232;2024-03-23T13:34:05;24.63;;;22.42;;
14007;SDS011;61651;45.508;12.232;2024-03-23T13:37:06;26.95;;;22.58;;
14007;SDS011;61651;45.508;12.232;2024-03-23T13:40:08;23.95;;;21.50;;
14007;SDS011;61651;45.508;12.232;2024-03-23T13:43:11;23.85;;;21.48;;
14007;SDS011;61651;45.508;12.232;2024-03-23T13:46:12;24.70;;;22.30;;
14007;SDS011;61651;45.508;12.232;2024-03-23T13:49:23;24.20;;;21.88;;
14007;SDS011;61651;45.508;12.232;2024-03-23T13:52:26;24.13;;;21.48;;
14007;SDS011;61651;45.508;12.232;2024-03-23T13:55:30;23.35;;;21.00;;
14007;SDS011;61651;45.508;12.232;2024-03-23T13:58:31;23.40;;;21.10;;
14007;SDS011;61651;45.508;12.232;2024-03-23T14:01:33;21.20;;;19.13;;
14007;SDS011;61651;45.508;12.232;2024-03-23T14:04:37;22.55;;;20.27;;
14007;SDS011;61651;45.508;12.232;2024-03-23T14:07:38;22.45;;;20.15;;
14007;SDS011;61651;45.508;12.232;2024-03-23T14:10:40;21.80;;;19.60;;
14007;SDS011;61651;45.508;12.232;2024-03-23T14:13:43;22.17;;;20.02;;
14007;SDS011;61651;45.508;12.232;2024-03-23T14:16:45;21.65;;;19.75;;
14007;SDS011;61651;45.508;12.232;2024-03-23T14:19:47;21.65;;;19.73;;
14007;SDS011;61651;45.508;12.232;2024-03-23T14:22:50;21.98;;;19.77;;
14007;SDS011;61651;45.508;12.232;2024-03-23T14:25:52;20.27;;;18.30;;
14007;SDS011;61651;45.508;12.232;2024-03-23T14:28:55;20.80;;;18.90;;
14007;SDS011;61651;45.508;12.232;2024-03-23T14:31:56;21.25;;;19.40;;
14007;SDS011;61651;45.508;12.232;2024-03-23T14:34:59;21.35;;;19.25;;
14007;SDS011;61651;45.508;12.232;2024-03-23T14:38:00;20.50;;;18.63;;
14007;SDS011;61651;45.508;12.232;2024-03-23T14:41:02;22.83;;;18.85;;
14007;SDS011;61651;45.508;12.232;2024-03-23T14:44:04;24.20;;;18.73;;
14007;SDS011;61651;45.508;12.232;2024-03-23T14:47:06;21.50;;;19.33;;
14007;SDS011;61651;45.508;12.232;2024-03-23T14:50:08;21.30;;;19.15;;
14007;SDS011;61651;45.508;12.232;2024-03-23T14:53:14;22.48;;;20.30;;
14007;SDS011;61651;45.508;12.232;2024-03-23T14:56:15;22.85;;;20.35;;
14007;SDS011;61651;45.508;12.232;2024-03-23T14:59:18;22.80;;;20.50;;
14007;SDS011;61651;45.508;12.232;2024-03-23T15:02:19;20.15;;;18.25;;
14007;SDS011;61651;45.508;12.232;2024-03-23T15:05:23;21.45;;;19.45;;
14007;SDS011;61651;45.508;12.232;2024-03-23T15:08:24;20.20;;;18.13;;
14007;SDS011;61651;45.508;12.232;2024-03-23T15:11:25;18.10;;;16.20;;
14007;SDS011;61651;45.508;12.232;2024-03-23T15:14:26;18.05;;;16.35;;
14007;SDS011;61651;45.508;12.232;2024-03-23T15:17:28;17.63;;;15.98;;
14007;SDS011;61651;45.508;12.232;2024-03-23T15:20:35;18.30;;;16.20;;
14007;SDS011;61651;45.508;12.232;2024-03-23T15:23:37;17.15;;;15.30;;
14007;SDS011;61651;45.508;12.232;2024-03-23T15:26:38;15.20;;;13.68;;
14007;SDS011;61651;45.508;12.232;2024-03-23T15:29:40;14.88;;;13.40;;
14007;SDS011;61651;45.508;12.232;2024-03-23T15:32:45;17.33;;;14.02;;
14007;SDS011;61651;45.508;12.232;2024-03-23T15:35:49;14.55;;;12.98;;
14007;SDS011;61651;45.508;12.232;2024-03-23T15:38:49;13.45;;;12.10;;
14007;SDS011;61651;45.508;12.232;2024-03-23T15:41:51;12.48;;;11.38;;
14007;SDS011;61651;45.508;12.232;2024-03-23T15:44:54;13.60;;;11.57;;
14007;SDS011;61651;45.508;12.232;2024-03-23T15:47:56;16.52;;;11.10;;
14007;SDS011;61651;45.508;12.232;2024-03-23T15:51:00;12.68;;;11.45;;
14007;SDS011;61651;45.508;12.232;2024-03-23T15:54:04;14.98;;;11.18;;
14007;SDS011;61651;45.508;12.232;2024-03-23T15:57:05;11.85;;;9.95;;
14007;SDS011;61651;45.508;12.232;2024-03-23T16:00:07;12.40;;;11.15;;
14007;SDS011;61651;45.508;12.232;2024-03-23T16:03:11;11.90;;;10.70;;
14007;SDS011;61651;45.508;12.232;2024-03-23T16:06:13;12.20;;;10.70;;
14007;SDS011;61651;45.508;12.232;2024-03-23T16:09:15;13.50;;;10.25;;
14007;SDS011;61651;45.508;12.232;2024-03-23T16:12:18;12.23;;;11.02;;
14007;SDS011;61651;45.508;12.232;2024-03-23T16:15:21;11.73;;;9.95;;
14007;SDS011;61651;45.508;12.232;2024-03-23T16:18:22;10.73;;;9.73;;
14007;SDS011;61651;45.508;12.232;2024-03-23T16:21:27;10.80;;;9.77;;
14007;SDS011;61651;45.508;12.232;2024-03-23T16:24:28;10.68;;;9.15;;
14007;SDS011;61651;45.508;12.232;2024-03-23T16:27:30;11.57;;;9.02;;
14007;SDS011;61651;45.508;12.232;2024-03-23T16:30:31;11.60;;;9.00;;
14007;SDS011;61651;45.508;12.232;2024-03-23T16:33:34;10.52;;;9.43;;
14007;SDS011;61651;45.508;12.232;2024-03-23T16:36:38;10.05;;;8.63;;
14007;SDS011;61651;45.508;12.232;2024-03-23T16:39:40;9.60;;;8.52;;
14007;SDS011;61651;45.508;12.232;2024-03-23T16:42:42;9.88;;;8.88;;
14007;SDS011;61651;45.508;12.232;2024-03-23T16:45:50;10.32;;;8.45;;
14007;SDS011;61651;45.508;12.232;2024-03-23T16:48:55;10.57;;;9.38;;
14007;SDS011;61651;45.508;12.232;2024-03-23T16:51:59;10.25;;;9.30;;
14007;SDS011;61651;45.508;12.232;2024-03-23T16:54:59;12.25;;;9.82;;
14007;SDS011;61651;45.508;12.232;2024-03-23T16:58:01;9.63;;;8.73;;
14007;SDS011;61651;45.508;12.232;2024-03-23T17:01:02;10.57;;;9.48;;
14007;SDS011;61651;45.508;12.232;2024-03-23T17:04:07;10.75;;;9.57;;
14007;SDS011;61651;45.508;12.232;2024-03-23T17:07:09;10.52;;;9.23;;
14007;SDS011;61651;45.508;12.232;2024-03-23T17:10:11;11.65;;;9.68;;
14007;SDS011;61651;45.508;12.232;2024-03-23T17:13:14;10.00;;;8.98;;
14007;SDS011;61651;45.508;12.232;2024-03-23T17:16:16;11.27;;;9.23;;
14007;SDS011;61651;45.508;12.232;2024-03-23T17:19:17;9.63;;;8.73;;
14007;SDS011;61651;45.508;12.232;2024-03-23T17:22:20;9.80;;;8.55;;
14007;SDS011;61651;45.508;12.232;2024-03-23T17:25:21;10.40;;;9.48;;
14007;SDS011;61651;45.508;12.232;2024-03-23T17:28:23;12.52;;;9.23;;
14007;SDS011;61651;45.508;12.232;2024-03-23T17:31:25;10.85;;;9.65;;
14007;SDS011;61651;45.508;12.232;2024-03-23T17:34:26;10.05;;;8.73;;
14007;SDS011;61651;45.508;12.232;2024-03-23T17:37:29;10.50;;;9.43;;
14007;SDS011;61651;45.508;12.232;2024-03-23T17:40:31;10.52;;;9.00;;
14007;SDS011;61651;45.508;12.232;2024-03-23T17:43:33;8.57;;;7.80;;
14007;SDS011;61651;45.508;12.232;2024-03-23T17:46:34;9.82;;;8.88;;
14007;SDS011;61651;45.508;12.232;2024-03-23T17:49:36;11.77;;;9.77;;
14007;SDS011;61651;45.508;12.232;2024-03-23T17:52:42;11.45;;;10.18;;
14007;SDS011;61651;45.508;12.232;2024-03-23T17:55:44;11.80;;;10.40;;
14007;SDS011;61651;45.508;12.232;2024-03-23T17:58:47;12.32;;;9.88;;
14007;SDS011;61651;45.508;12.232;2024-03-23T18:01:49;12.05;;;10.85;;
14007;SDS011;61651;45.508;12.232;2024-03-23T18:04:50;11.35;;;10.25;;
14007;SDS011;61651;45.508;12.232;2024-03-23T18:07:53;11.98;;;10.55;;
14007;SDS011;61651;45.508;12.232;2024-03-23T18:10:54;12.57;;;11.30;;
14007;SDS011;61651;45.508;12.232;2024-03-23T18:13:57;13.00;;;11.75;;
14007;SDS011;61651;45.508;12.232;2024-03-23T18:16:58;13.32;;;11.93;;
14007;SDS011;61651;45.508;12.232;2024-03-23T18:20:00;15.98;;;13.40;;
14007;SDS011;61651;45.508;12.232;2024-03-23T18:23:03;16.92;;;13.88;;
14007;SDS011;61651;45.508;12.232;2024-03-23T18:26:05;18.10;;;14.15;;
14007;SDS011;61651;45.508;12.232;2024-03-23T18:29:06;15.90;;;14.25;;